Rechercher aéroport 
image banner adimage banner adimage banner ad
image banner ad

CL77 - Bonny Doon

Situé à Santa Cruz, United States

ICAO - CL77, IATA -

Données fournies par Airmate  

Information générale

Coordonnées: N37°4'14" W122°7'39"
Élévation : 2020 feet MSL.
Variation magnétique : 16° East
Voir autres Aéroports à California

Données opérationnelles

Special qualification required
Heure actuelle UTC:
Heure actuelle locale:
Météo à : KWVI - Watsonville Muni ( 34 km )
METAR: KWVI 210153Z AUTO 20005KT 10SM CLR 18/13 A2993 RMK AO2 SLP133 T01830133
Voir NOTAMs / SUP AIP / TFR affectant cet aéroport [VIEW]
Fréquences de communication: [VIEW]

Pistes:

Identifiant RWYQFULongueur (ft)Largeur (ft)SurfaceLDA (ft)
12220050ASPH
30220050ASPH

Coordonnées de l'aéroport

Adresse: Santa Cruz United States

Vue satellite de CL77